createdAt,value
2022-08-26T06:26:11.289Z,3.62
2022-08-26T06:29:15.563Z,3.80
2022-08-26T06:32:27.358Z,4.03
2022-08-26T06:35:30.405Z,3.80
2022-08-26T06:38:34.070Z,3.75
2022-08-26T06:41:45.079Z,3.00
2022-08-26T06:44:51.171Z,3.00
2022-08-26T06:47:54.274Z,2.92
2022-08-26T06:51:22.343Z,3.28
2022-08-26T06:54:31.719Z,3.12
2022-08-26T06:57:37.708Z,3.33
2022-08-26T07:00:47.203Z,3.22
2022-08-26T07:03:52.939Z,2.70
2022-08-26T07:06:57.370Z,3.08
2022-08-26T07:10:00.178Z,3.45
2022-08-26T07:13:04.682Z,2.67
2022-08-26T07:16:12.076Z,3.42
2022-08-26T07:19:27.602Z,3.03
2022-08-26T07:22:34.348Z,2.83
2022-08-26T07:25:42.258Z,3.03
2022-08-26T07:28:48.829Z,2.87
2022-08-26T07:31:52.089Z,3.20
2022-08-26T07:34:54.851Z,3.42
2022-08-26T07:37:57.887Z,3.17
2022-08-26T07:41:01.844Z,2.60
2022-08-26T07:44:05.314Z,3.15
2022-08-26T07:47:10.466Z,3.17
2022-08-26T07:50:49.223Z,3.80
2022-08-26T07:53:52.504Z,3.25
2022-08-26T07:56:56.198Z,3.10
2022-08-26T07:59:59.778Z,2.90
2022-08-26T08:03:05.719Z,2.85
2022-08-26T08:06:09.737Z,3.35
2022-08-26T08:09:16.107Z,2.80
2022-08-26T08:12:20.573Z,2.78
2022-08-26T08:15:26.603Z,2.72
2022-08-26T08:18:29.714Z,3.42
2022-08-26T08:21:32.420Z,2.75
2022-08-26T08:24:35.832Z,2.85
2022-08-26T08:27:40.213Z,3.10
2022-08-26T08:30:43.222Z,3.35
2022-08-26T08:33:47.471Z,3.25
2022-08-26T08:36:53.564Z,2.60
2022-08-26T08:39:56.836Z,2.90
2022-08-26T08:43:04.056Z,2.83
2022-08-26T08:46:16.749Z,3.58
2022-08-26T08:49:25.955Z,2.80
2022-08-26T08:52:35.212Z,3.20
2022-08-26T08:56:17.150Z,3.08
2022-08-26T08:59:26.423Z,3.35
2022-08-26T09:02:37.200Z,3.17
2022-08-26T09:05:48.563Z,2.60
2022-08-26T09:08:52.415Z,3.10
2022-08-26T09:12:01.748Z,3.10
2022-08-26T09:15:11.493Z,2.85
2022-08-26T09:18:47.682Z,2.78
2022-08-26T09:24:59.638Z,2.90
2022-08-26T09:28:02.908Z,3.17
2022-08-26T09:31:20.106Z,2.97
2022-08-26T09:34:28.418Z,2.87
2022-08-26T09:41:26.699Z,2.80
2022-08-26T09:44:29.913Z,2.53
2022-08-26T09:47:48.078Z,3.40
2022-08-26T09:50:58.249Z,3.72
2022-08-26T09:54:05.700Z,2.83
2022-08-26T09:57:20.949Z,3.08
2022-08-26T10:00:27.529Z,3.08
2022-08-26T10:03:33.331Z,2.83
2022-08-26T10:06:43.033Z,3.15
2022-08-26T10:46:41.369Z,3.20
2022-08-26T10:49:47.711Z,2.87
2022-08-26T10:53:10.628Z,3.00
2022-08-26T10:56:44.826Z,3.22
2022-08-26T11:00:27.567Z,2.90
2022-08-26T11:03:48.890Z,3.28
2022-08-26T11:07:31.734Z,3.03
2022-08-26T11:10:59.495Z,3.50
2022-08-26T11:14:07.660Z,3.72
2022-08-26T11:17:11.789Z,2.60
2022-08-26T11:20:23.901Z,2.97
2022-08-26T11:23:38.609Z,2.97
2022-08-26T11:26:55.483Z,3.10
2022-08-26T11:30:18.359Z,2.95
2022-08-26T11:33:43.953Z,3.65
2022-08-26T11:36:47.332Z,3.33
2022-08-26T11:39:57.028Z,3.08
2022-08-26T11:43:08.518Z,3.47
2022-08-26T11:46:13.021Z,2.47
2022-08-26T11:49:17.409Z,2.42
2022-08-26T11:52:22.287Z,2.80
2022-08-26T11:55:28.020Z,2.50
2022-08-26T11:58:32.182Z,2.78
2022-08-26T12:01:40.687Z,2.67
2022-08-26T12:04:48.579Z,2.65
2022-08-26T12:07:53.065Z,2.80
2022-08-26T12:11:10.684Z,2.70
2022-08-26T12:14:25.415Z,2.80
2022-08-26T12:17:31.898Z,2.30
2022-08-26T12:20:46.567Z,3.45
2022-08-26T12:23:52.792Z,2.50
2022-08-26T12:27:15.254Z,2.83
2022-08-26T12:30:24.369Z,3.25
2022-08-26T12:33:29.767Z,2.53
2022-08-26T12:36:55.477Z,2.60
2022-08-26T12:40:40.743Z,2.95
2022-08-26T12:43:45.393Z,2.65
2022-08-26T12:46:49.847Z,2.87
2022-08-26T12:50:22.130Z,2.40
2022-08-26T12:53:40.901Z,2.70
2022-08-26T12:56:43.981Z,2.20
2022-08-26T12:59:46.732Z,2.90
2022-08-26T13:02:49.849Z,2.25
2022-08-26T13:06:34.759Z,2.05
2022-08-26T13:09:38.545Z,2.50
2022-08-26T13:12:42.039Z,2.15
2022-08-26T13:15:45.073Z,2.20
2022-08-26T13:18:49.413Z,2.65
2022-08-26T13:21:55.879Z,2.55
2022-08-26T13:24:58.644Z,2.42
2022-08-26T13:28:04.444Z,2.42
2022-08-26T13:31:07.216Z,2.08
2022-08-26T13:34:14.238Z,2.40
2022-08-26T13:37:17.141Z,2.42
2022-08-26T13:40:20.255Z,2.17
2022-08-26T13:43:23.048Z,2.12
2022-08-26T13:46:27.341Z,2.65
2022-08-26T13:49:30.266Z,2.42
2022-08-26T13:52:33.462Z,2.47
2022-08-26T13:55:36.314Z,2.42
2022-08-26T13:58:39.422Z,5.65
2022-08-26T14:01:42.390Z,2.45
2022-08-26T14:04:45.387Z,2.62
2022-08-26T14:07:48.072Z,2.30
2022-08-26T14:10:51.180Z,1.90
2022-08-26T14:13:53.873Z,2.60
2022-08-26T14:16:59.385Z,2.28
2022-08-26T14:20:03.067Z,2.90
2022-08-26T14:23:14.422Z,2.00
2022-08-26T14:26:28.435Z,2.30
2022-08-26T14:29:34.723Z,2.10
2022-08-26T14:32:42.951Z,3.15
2022-08-26T14:35:47.992Z,2.30
2022-08-26T14:38:52.470Z,2.92
2022-08-26T14:41:56.633Z,2.20
2022-08-26T14:45:02.956Z,2.45
2022-08-26T14:48:06.012Z,2.42
2022-08-26T14:51:08.848Z,2.03
2022-08-26T14:54:13.561Z,2.25
2022-08-26T14:57:16.460Z,2.72
2022-08-26T15:00:20.835Z,2.65
2022-08-26T15:03:23.591Z,2.22
2022-08-26T15:06:27.543Z,3.78
2022-08-26T15:09:33.396Z,2.50
2022-08-26T15:12:36.388Z,2.67
2022-08-26T15:15:39.206Z,2.72
2022-08-26T15:18:42.328Z,2.42
2022-08-26T15:21:47.052Z,2.65
2022-08-26T15:24:53.627Z,2.30
2022-08-26T15:27:56.652Z,2.62
2022-08-26T15:31:00.615Z,2.78
2022-08-26T15:34:06.770Z,2.12
2022-08-26T15:37:10.142Z,2.42
2022-08-26T15:40:12.940Z,3.15
2022-08-26T15:43:28.717Z,4.25
2022-08-26T15:46:32.151Z,2.80
2022-08-26T15:49:35.292Z,3.17
2022-08-26T15:52:40.259Z,4.22
2022-08-26T15:55:43.398Z,3.67
2022-08-26T15:58:46.840Z,3.72
2022-08-26T16:01:51.529Z,2.37
2022-08-26T16:04:54.600Z,2.17
2022-08-26T16:07:57.876Z,3.17
2022-08-26T16:11:03.716Z,2.58
2022-08-26T16:14:07.232Z,2.80
2022-08-26T16:17:11.556Z,2.75
2022-08-26T16:20:14.219Z,2.85
2022-08-26T16:23:18.102Z,3.20
2022-08-26T16:26:25.768Z,2.85
2022-08-26T16:29:28.874Z,2.50
2022-08-26T16:32:31.661Z,2.55
2022-08-26T16:35:35.323Z,2.87
2022-08-26T16:38:39.005Z,4.15
2022-08-26T16:41:42.323Z,3.17
2022-08-26T16:44:45.159Z,2.58
2022-08-26T16:47:48.768Z,2.22
2022-08-26T16:50:52.042Z,2.40
2022-08-26T16:53:56.583Z,8.50
2022-08-26T16:56:59.294Z,9.38
2022-08-26T17:00:06.555Z,22.00
2022-08-26T17:03:09.488Z,16.55
2022-08-26T17:06:13.182Z,11.02
2022-08-26T17:09:16.022Z,9.43
2022-08-26T17:12:19.122Z,6.30
2022-08-26T17:15:25.468Z,4.15
2022-08-26T17:18:30.113Z,3.75
2022-08-26T17:21:34.954Z,3.87
2022-08-26T17:24:38.003Z,4.72
2022-08-26T17:27:40.997Z,4.50
2022-08-26T17:30:46.180Z,5.10
2022-08-26T17:33:53.957Z,2.83
2022-08-26T17:36:57.294Z,3.97
2022-08-26T17:40:00.163Z,3.47
2022-08-26T17:43:03.226Z,3.67
2022-08-26T17:46:08.825Z,2.97
2022-08-26T17:49:11.955Z,2.97
2022-08-26T17:52:14.738Z,3.35
2022-08-26T17:55:19.168Z,3.20
2022-08-26T17:58:23.788Z,2.80
2022-08-26T18:01:28.407Z,3.53
2022-08-26T18:04:31.940Z,3.15
2022-08-26T18:07:39.035Z,3.22
2022-08-26T18:10:47.323Z,3.22
2022-08-26T18:13:50.215Z,2.90
2022-08-26T18:16:53.615Z,3.22
2022-08-26T18:20:04.158Z,3.22
2022-08-26T18:23:07.584Z,3.17
2022-08-26T18:26:16.450Z,3.45
2022-08-26T18:32:30.687Z,3.05
2022-08-26T18:35:42.231Z,2.72
2022-08-26T18:39:06.893Z,3.20
2022-08-26T18:42:09.948Z,3.53
2022-08-26T18:45:16.070Z,3.97
2022-08-26T18:48:19.899Z,3.65
2022-08-26T18:51:26.351Z,4.07
